createdAt,value
2018-12-31T00:27:17.041Z,49.44
2018-12-31T00:27:17.616Z,49.15
2018-12-31T00:27:18.214Z,49.44
2018-12-31T00:27:18.815Z,49.35
2018-12-31T00:27:19.415Z,49.44
2018-12-31T00:27:20.014Z,49.35
2018-12-31T00:27:20.614Z,49.44
2018-12-31T00:27:21.214Z,49.44
2018-12-31T00:28:14.670Z,49.25
2018-12-31T00:28:15.267Z,49.25
2018-12-31T00:28:15.866Z,48.87
2018-12-31T00:28:16.467Z,49.35
2018-12-31T00:28:17.067Z,49.15
2018-12-31T00:28:17.669Z,49.15
2018-12-31T00:28:18.267Z,49.44
2018-12-31T00:28:18.868Z,49.25
2018-12-31T00:29:13.350Z,48.96
2018-12-31T00:29:13.943Z,49.06
2018-12-31T00:29:14.542Z,49.06
2018-12-31T00:29:15.142Z,49.06
2018-12-31T00:29:15.740Z,48.87
2018-12-31T00:29:16.341Z,49.15
2018-12-31T00:29:16.942Z,49.25
2018-12-31T00:29:17.540Z,48.96
2018-12-31T00:30:11.022Z,48.77
2018-12-31T00:30:11.597Z,48.77
2018-12-31T00:30:12.196Z,48.77
2018-12-31T00:30:12.795Z,48.87
2018-12-31T00:30:13.396Z,48.87
2018-12-31T00:30:13.995Z,48.77
2018-12-31T00:30:14.594Z,48.77
2018-12-31T00:30:15.197Z,48.87
2018-12-31T00:31:08.651Z,48.39
2018-12-31T00:31:09.249Z,48.30
2018-12-31T00:31:09.848Z,48.49
2018-12-31T00:31:10.450Z,48.39
2018-12-31T00:31:11.049Z,48.49
2018-12-31T00:31:11.648Z,48.21
2018-12-31T00:31:12.250Z,48.21
2018-12-31T00:31:12.848Z,48.30
2018-12-31T00:32:07.325Z,48.39
2018-12-31T00:32:07.924Z,48.58
2018-12-31T00:32:08.524Z,48.30
2018-12-31T00:32:09.124Z,48.39
2018-12-31T00:32:09.736Z,48.49
2018-12-31T00:32:10.322Z,48.39
2018-12-31T00:32:10.923Z,48.49
2018-12-31T00:32:11.525Z,48.58
2018-12-31T00:33:04.979Z,48.11
2018-12-31T00:33:05.578Z,48.30
2018-12-31T00:33:06.181Z,48.30
2018-12-31T00:33:06.775Z,48.21
2018-12-31T00:33:07.378Z,48.30
2018-12-31T00:33:07.976Z,48.30
2018-12-31T00:33:08.576Z,48.30
2018-12-31T00:33:09.176Z,48.11
2018-12-31T00:34:03.656Z,48.30
2018-12-31T00:34:04.253Z,48.30
2018-12-31T00:34:04.855Z,48.30
2018-12-31T00:34:05.452Z,48.21
2018-12-31T00:34:06.051Z,48.39
2018-12-31T00:34:06.650Z,48.30
2018-12-31T00:34:07.251Z,48.21
2018-12-31T00:34:07.850Z,48.39
2018-12-31T00:35:01.341Z,48.01
2018-12-31T00:35:01.906Z,48.01
2018-12-31T00:35:02.505Z,48.01
2018-12-31T00:35:03.105Z,48.01
2018-12-31T00:35:03.705Z,48.01
2018-12-31T00:35:04.304Z,47.92
2018-12-31T00:35:04.906Z,47.82
2018-12-31T00:35:05.504Z,48.11
2018-12-31T00:35:58.963Z,47.82
2018-12-31T00:35:59.556Z,47.92
2018-12-31T00:36:00.156Z,47.82
2018-12-31T00:36:00.757Z,47.82
2018-12-31T00:36:01.355Z,47.92
2018-12-31T00:36:01.955Z,47.92
2018-12-31T00:36:02.554Z,48.01
2018-12-31T00:36:03.155Z,47.92
2018-12-31T00:36:56.611Z,47.44
2018-12-31T00:36:57.208Z,47.25
2018-12-31T00:36:57.809Z,47.25
2018-12-31T00:36:58.409Z,47.34
2018-12-31T00:36:59.009Z,47.25
2018-12-31T00:36:59.608Z,47.25
2018-12-31T00:37:00.208Z,47.44
2018-12-31T00:37:00.807Z,47.34
2018-12-31T00:37:54.264Z,47.16
2018-12-31T00:37:54.859Z,47.06
2018-12-31T00:37:55.460Z,47.25
2018-12-31T00:37:56.063Z,47.06
2018-12-31T00:37:56.659Z,47.16
2018-12-31T00:37:57.262Z,47.06
2018-12-31T00:37:57.859Z,47.16
2018-12-31T00:37:58.458Z,47.16
2018-12-31T00:38:52.939Z,46.78
2018-12-31T00:38:53.535Z,46.97
2018-12-31T00:38:54.136Z,46.88
2018-12-31T00:38:54.737Z,47.06
2018-12-31T00:38:55.336Z,46.97
2018-12-31T00:38:55.935Z,46.88
2018-12-31T00:38:56.535Z,47.06
2018-12-31T00:38:57.135Z,46.78
2018-12-31T00:39:51.614Z,46.97
2018-12-31T00:39:52.211Z,47.06
2018-12-31T00:39:52.812Z,46.78
2018-12-31T00:39:53.411Z,46.78
2018-12-31T00:39:54.010Z,46.88
2018-12-31T00:39:54.611Z,46.78
2018-12-31T00:39:55.211Z,46.88
2018-12-31T00:39:55.811Z,46.78
2018-12-31T00:40:49.293Z,46.78
2018-12-31T00:40:49.864Z,46.88
2018-12-31T00:40:50.463Z,46.97
2018-12-31T00:40:51.063Z,46.78
2018-12-31T00:40:51.666Z,46.78
2018-12-31T00:40:52.263Z,46.97
2018-12-31T00:40:52.863Z,46.89
2018-12-31T00:40:53.463Z,46.97
2018-12-31T00:41:46.918Z,46.80
2018-12-31T00:41:47.516Z,46.78
2018-12-31T00:41:48.116Z,46.78
2018-12-31T00:41:48.716Z,46.68
2018-12-31T00:41:49.318Z,46.78
2018-12-31T00:41:49.915Z,46.88
2018-12-31T00:41:50.518Z,46.68
2018-12-31T00:41:51.115Z,46.97
2018-12-31T00:42:45.592Z,46.88
2018-12-31T00:42:46.189Z,46.51
2018-12-31T00:42:46.792Z,46.70
2018-12-31T00:42:47.390Z,46.88
2018-12-31T00:42:47.993Z,46.40
2018-12-31T00:42:48.592Z,46.61
2018-12-31T00:42:49.190Z,46.59
2018-12-31T00:42:49.789Z,46.59
2018-12-31T00:43:43.247Z,46.49
2018-12-31T00:43:43.844Z,46.49
2018-12-31T00:43:44.446Z,46.49
2018-12-31T00:43:45.043Z,46.61
2018-12-31T00:43:45.645Z,46.51
2018-12-31T00:43:46.243Z,46.61
2018-12-31T00:43:46.842Z,46.61
2018-12-31T00:43:47.444Z,46.51
2018-12-31T00:44:40.898Z,46.68
2018-12-31T00:44:41.495Z,46.59
2018-12-31T00:44:42.094Z,46.61
2018-12-31T00:44:42.695Z,46.68
2018-12-31T00:44:43.295Z,46.61
2018-12-31T00:44:43.895Z,46.70
2018-12-31T00:44:44.495Z,46.59
2018-12-31T00:44:45.095Z,46.51
2018-12-31T00:45:38.573Z,46.49
2018-12-31T00:45:39.147Z,46.61
2018-12-31T00:45:39.750Z,46.51
2018-12-31T00:45:40.348Z,46.61
2018-12-31T00:45:40.946Z,46.61
2018-12-31T00:45:41.547Z,46.61
2018-12-31T00:45:42.147Z,46.61
2018-12-31T00:45:42.746Z,46.61
2018-12-31T00:46:37.226Z,46.42
2018-12-31T00:46:37.822Z,46.89
2018-12-31T00:46:38.421Z,46.42
2018-12-31T00:46:39.022Z,46.61
2018-12-31T00:46:39.675Z,46.61
2018-12-31T00:46:40.221Z,46.33
2018-12-31T00:46:40.821Z,46.51
2018-12-31T00:46:41.420Z,46.61
2018-12-31T00:47:34.877Z,46.61
2018-12-31T00:47:35.473Z,46.61
2018-12-31T00:47:36.074Z,46.51
2018-12-31T00:47:36.674Z,46.51
2018-12-31T00:47:37.275Z,46.70
2018-12-31T00:47:37.875Z,46.51
2018-12-31T00:47:38.473Z,46.61
2018-12-31T00:47:39.073Z,46.70
2018-12-31T00:48:32.529Z,46.70
2018-12-31T00:48:33.126Z,46.89
2018-12-31T00:48:33.729Z,46.80
2018-12-31T00:48:34.329Z,46.70
2018-12-31T00:48:34.927Z,46.80
2018-12-31T00:48:35.526Z,46.70
2018-12-31T00:48:36.126Z,46.80
2018-12-31T00:48:36.728Z,46.80
2018-12-31T00:49:31.203Z,46.99
2018-12-31T00:49:31.802Z,46.89
2018-12-31T00:49:32.400Z,46.89
2018-12-31T00:49:33.001Z,46.70
2018-12-31T00:49:33.600Z,46.99
2018-12-31T00:49:34.202Z,46.99
2018-12-31T00:49:34.800Z,46.99
2018-12-31T00:49:35.400Z,46.89
2018-12-31T00:50:29.879Z,47.09
2018-12-31T00:50:30.475Z,46.99
2018-12-31T00:50:31.076Z,46.99
2018-12-31T00:50:31.676Z,47.09
2018-12-31T00:50:32.276Z,46.99
2018-12-31T00:50:32.876Z,47.09
2018-12-31T00:50:33.476Z,47.09
2018-12-31T00:50:34.076Z,46.99
2018-12-31T00:51:28.579Z,47.09
2018-12-31T00:51:29.152Z,46.89
2018-12-31T00:51:29.754Z,46.89
2018-12-31T00:51:30.351Z,47.09
2018-12-31T00:51:30.952Z,47.09
2018-12-31T00:51:31.553Z,46.99
2018-12-31T00:51:32.154Z,47.18
2018-12-31T00:51:32.754Z,47.18
2018-12-31T00:52:26.209Z,47.09
2018-12-31T00:52:26.806Z,47.18
2018-12-31T00:52:27.404Z,47.18
2018-12-31T00:52:28.006Z,47.09
2018-12-31T00:52:28.604Z,47.18
2018-12-31T00:52:29.205Z,47.18
2018-12-31T00:52:29.804Z,47.18
2018-12-31T00:52:30.404Z,46.99
2018-12-31T00:53:23.861Z,47.37
2018-12-31T00:53:24.456Z,47.56
2018-12-31T00:53:25.059Z,47.37
2018-12-31T00:53:25.656Z,47.28
2018-12-31T00:53:26.255Z,47.37
2018-12-31T00:53:26.856Z,47.47
2018-12-31T00:53:27.457Z,47.28
2018-12-31T00:53:28.055Z,47.56
2018-12-31T00:54:22.535Z,48.03
2018-12-31T00:54:23.132Z,47.94
2018-12-31T00:54:23.732Z,47.94
2018-12-31T00:54:24.333Z,47.85
2018-12-31T00:54:25.021Z,48.03
2018-12-31T00:54:25.531Z,47.85
2018-12-31T00:54:26.132Z,47.85
2018-12-31T00:54:26.733Z,47.94
2018-12-31T00:55:20.189Z,48.32
2018-12-31T00:55:20.784Z,48.23
2018-12-31T00:55:21.384Z,48.23
2018-12-31T00:55:21.988Z,48.03
2018-12-31T00:55:22.584Z,48.13
2018-12-31T00:55:23.186Z,48.23
2018-12-31T00:55:23.783Z,48.13
2018-12-31T00:55:24.385Z,48.13
2018-12-31T00:56:17.866Z,48.13
2018-12-31T00:56:18.442Z,48.23
2018-12-31T00:56:19.036Z,48.03
2018-12-31T00:56:19.636Z,48.61
2018-12-31T00:56:20.236Z,48.42
2018-12-31T00:56:20.836Z,48.03
2018-12-31T00:56:21.437Z,48.23
2018-12-31T00:56:22.034Z,48.23
2018-12-31T00:57:16.517Z,48.23
2018-12-31T00:57:17.112Z,48.23
2018-12-31T00:57:17.711Z,48.61
2018-12-31T00:57:18.310Z,48.51
2018-12-31T00:57:18.911Z,48.51
2018-12-31T00:57:19.511Z,48.42
2018-12-31T00:57:20.109Z,48.61
2018-12-31T00:57:20.710Z,48.71
2018-12-31T00:58:14.167Z,48.99
2018-12-31T00:58:14.763Z,48.99
2018-12-31T00:58:15.363Z,48.99
2018-12-31T00:58:15.964Z,48.99
2018-12-31T00:58:16.563Z,48.90
2018-12-31T00:58:17.163Z,48.99
2018-12-31T00:58:17.762Z,48.99
2018-12-31T00:58:18.362Z,48.90
2018-12-31T00:59:11.825Z,49.27
2018-12-31T00:59:12.415Z,49.18
2018-12-31T00:59:13.016Z,49.18
2018-12-31T00:59:13.614Z,49.27
2018-12-31T00:59:14.215Z,49.46
2018-12-31T00:59:14.815Z,49.37
2018-12-31T00:59:15.415Z,49.18
2018-12-31T00:59:16.016Z,49.18
2018-12-31T01:00:09.469Z,49.65
2018-12-31T01:00:10.067Z,49.65
2018-12-31T01:00:10.667Z,49.85
2018-12-31T01:00:11.267Z,49.75
2018-12-31T01:00:11.866Z,49.65
2018-12-31T01:00:12.468Z,49.65
2018-12-31T01:00:13.069Z,49.65
2018-12-31T01:00:13.667Z,49.75
2018-12-31T01:01:08.169Z,50.13
2018-12-31T01:01:08.742Z,50.04
2018-12-31T01:01:09.341Z,50.32
2018-12-31T01:01:09.941Z,50.23
2018-12-31T01:01:10.542Z,50.23
2018-12-31T01:01:11.140Z,50.23
2018-12-31T01:01:11.740Z,50.23
2018-12-31T01:01:12.342Z,50.23
2018-12-31T01:02:05.796Z,50.32
2018-12-31T01:02:06.393Z,50.51
2018-12-31T01:02:06.994Z,50.51
2018-12-31T01:02:07.593Z,50.42
2018-12-31T01:02:08.194Z,50.23
2018-12-31T01:02:08.793Z,50.23
2018-12-31T01:02:09.393Z,50.32
2018-12-31T01:02:09.993Z,50.42
2018-12-31T01:03:04.471Z,50.51
2018-12-31T01:03:05.071Z,50.51
2018-12-31T01:03:05.668Z,50.60
2018-12-31T01:03:06.268Z,50.60
2018-12-31T01:03:06.871Z,50.60
2018-12-31T01:03:07.469Z,50.70
2018-12-31T01:03:08.068Z,50.51
2018-12-31T01:03:08.670Z,50.51
2018-12-31T01:04:03.148Z,50.79
2018-12-31T01:04:03.747Z,50.60
2018-12-31T01:04:04.350Z,50.79
2018-12-31T01:04:04.946Z,50.79
2018-12-31T01:04:05.544Z,50.70
2018-12-31T01:04:06.144Z,50.89
2018-12-31T01:04:06.745Z,50.89
2018-12-31T01:04:07.344Z,50.79
2018-12-31T01:05:02.361Z,51.18
2018-12-31T01:05:02.927Z,51.10
2018-12-31T01:05:03.527Z,50.92
2018-12-31T01:05:04.127Z,51.01
2018-12-31T01:05:04.727Z,50.99
2018-12-31T01:05:05.328Z,51.27
2018-12-31T01:05:05.926Z,51.39
2018-12-31T01:06:00.392Z,51.75
2018-12-31T01:06:00.989Z,52.15
2018-12-31T01:06:01.589Z,52.03
2018-12-31T01:06:02.191Z,52.22
2018-12-31T01:06:02.791Z,52.06
2018-12-31T01:06:03.388Z,52.15
2018-12-31T01:06:03.988Z,52.06
2018-12-31T01:06:04.588Z,52.15
2018-12-31T01:06:59.067Z,52.82
2018-12-31T01:06:59.666Z,52.82
2018-12-31T01:07:00.265Z,52.92
2018-12-31T01:07:00.865Z,52.92
2018-12-31T01:07:01.466Z,52.82
2018-12-31T01:07:02.065Z,52.89
2018-12-31T01:07:02.664Z,52.92
2018-12-31T01:07:03.265Z,52.92
2018-12-31T01:07:57.743Z,53.67
2018-12-31T01:07:58.340Z,53.67
2018-12-31T01:07:58.941Z,53.75
2018-12-31T01:07:59.542Z,53.65
2018-12-31T01:08:00.140Z,54.06
2018-12-31T01:08:00.739Z,53.77
2018-12-31T01:08:01.341Z,53.87
2018-12-31T01:08:01.943Z,53.75
2018-12-31T01:11:24.297Z,56.92
2018-12-31T01:11:24.870Z,57.39
2018-12-31T01:11:25.471Z,57.39
2018-12-31T01:11:26.071Z,57.39
2018-12-31T01:11:26.669Z,57.39
2018-12-31T01:11:27.268Z,57.39
2018-12-31T01:11:27.871Z,57.48
2018-12-31T01:11:28.468Z,57.29
2018-12-31T01:11:29.068Z,57.26
2018-12-31T01:11:29.669Z,57.26
2018-12-31T01:11:30.277Z,57.29
2018-12-31T01:11:30.868Z,57.48
2018-12-31T01:12:26.340Z,57.67
2018-12-31T01:12:26.943Z,57.67
2018-12-31T01:12:27.538Z,57.77
2018-12-31T01:12:28.138Z,57.67
2018-12-31T01:12:28.737Z,57.87
2018-12-31T01:12:29.340Z,57.87
2018-12-31T01:12:29.938Z,57.67
2018-12-31T01:13:44.473Z,58.34
2018-12-31T01:13:45.070Z,58.53
2018-12-31T01:13:45.669Z,58.44
2018-12-31T01:13:46.269Z,58.53
2018-12-31T01:13:46.868Z,58.34
2018-12-31T01:13:47.474Z,58.34
2018-12-31T01:13:48.070Z,58.62
2018-12-31T01:13:48.671Z,58.44
2018-12-31T01:14:42.126Z,59.10
2018-12-31T01:14:42.726Z,59.10
2018-12-31T01:14:43.322Z,59.10
2018-12-31T01:14:43.923Z,58.72
2018-12-31T01:14:44.522Z,59.10
2018-12-31T01:14:45.125Z,58.81
2018-12-31T01:14:45.723Z,59.01
2018-12-31T01:14:46.323Z,59.10
2018-12-31T01:15:39.776Z,59.77
2018-12-31T01:15:40.377Z,59.67
2018-12-31T01:15:40.974Z,59.58
2018-12-31T01:15:41.574Z,60.15
2018-12-31T01:15:42.174Z,59.96
2018-12-31T01:15:42.774Z,59.96
2018-12-31T01:15:43.373Z,60.15
2018-12-31T01:15:43.973Z,60.05
2018-12-31T01:16:37.451Z,60.24
2018-12-31T01:16:38.025Z,60.44
2018-12-31T01:16:38.626Z,60.63
2018-12-31T01:16:39.230Z,60.15
2018-12-31T01:16:39.826Z,60.24
2018-12-31T01:16:40.427Z,60.34
2018-12-31T01:16:41.025Z,60.24
2018-12-31T01:16:41.626Z,60.24
2018-12-31T01:17:35.081Z,61.38
2018-12-31T01:17:35.676Z,61.38
2018-12-31T01:17:36.278Z,61.19
2018-12-31T01:17:36.879Z,61.19
2018-12-31T01:17:37.478Z,61.29
2018-12-31T01:17:38.077Z,61.29
2018-12-31T01:17:38.678Z,61.19
2018-12-31T01:17:39.275Z,61.48
2018-12-31T01:18:33.242Z,62.05
2018-12-31T01:18:33.845Z,62.15
2018-12-31T01:18:34.442Z,62.15
2018-12-31T01:18:35.045Z,62.15
2018-12-31T01:18:35.639Z,62.34
2018-12-31T01:18:36.240Z,62.05
2018-12-31T01:18:36.839Z,62.24
2018-12-31T01:19:31.309Z,64.15
2018-12-31T01:19:31.902Z,64.24
2018-12-31T01:19:32.501Z,64.05
2018-12-31T01:19:33.100Z,64.15
2018-12-31T01:19:33.700Z,64.05
2018-12-31T01:19:34.300Z,64.24
2018-12-31T01:19:34.943Z,64.05
2018-12-31T01:19:35.499Z,64.05
2018-12-31T01:20:29.979Z,65.38
2018-12-31T01:20:30.577Z,65.29
2018-12-31T01:20:31.177Z,65.38
2018-12-31T01:20:31.779Z,65.38
2018-12-31T01:20:32.378Z,65.38
2018-12-31T01:20:32.978Z,65.19
2018-12-31T01:20:33.576Z,65.38
2018-12-31T01:20:34.177Z,64.90
2018-12-31T01:21:28.656Z,66.43
2018-12-31T01:21:29.254Z,66.14
2018-12-31T01:21:29.854Z,66.43
2018-12-31T01:21:30.456Z,66.53
2018-12-31T01:21:31.052Z,66.62
2018-12-31T01:21:31.653Z,66.62
2018-12-31T01:21:32.254Z,66.62
2018-12-31T01:21:32.858Z,66.62
2018-12-31T01:22:27.362Z,66.53
2018-12-31T01:22:27.928Z,66.24
2018-12-31T01:22:28.527Z,66.24
2018-12-31T01:22:29.129Z,66.53
2018-12-31T01:22:29.728Z,66.24
2018-12-31T01:22:30.328Z,66.33
2018-12-31T01:22:30.927Z,65.95
2018-12-31T01:22:31.529Z,66.24
2018-12-31T01:23:26.009Z,66.72
2018-12-31T01:23:26.606Z,66.81
2018-12-31T01:23:27.204Z,66.81
2018-12-31T01:23:27.804Z,66.81
2018-12-31T01:23:28.404Z,66.81
2018-12-31T01:23:29.003Z,66.91
2018-12-31T01:23:29.604Z,66.91
2018-12-31T01:23:30.202Z,67.10
2018-12-31T01:24:24.683Z,67.86
2018-12-31T01:24:25.279Z,67.57
2018-12-31T01:24:25.883Z,67.57
2018-12-31T01:24:26.483Z,67.67
2018-12-31T01:24:27.080Z,67.67
2018-12-31T01:24:27.679Z,67.86
2018-12-31T01:24:28.280Z,68.33
2018-12-31T01:24:28.879Z,67.86
2018-12-31T01:25:23.358Z,68.15
2018-12-31T01:25:23.956Z,68.33
2018-12-31T01:25:24.556Z,68.33
2018-12-31T01:25:25.156Z,68.33
2018-12-31T01:25:25.755Z,68.15
2018-12-31T01:25:26.355Z,68.33
2018-12-31T01:25:26.956Z,68.43
2018-12-31T01:25:27.555Z,68.24
2018-12-31T01:26:22.034Z,69.19
2018-12-31T01:26:22.634Z,69.19
2018-12-31T01:26:23.231Z,69.00
2018-12-31T01:26:23.832Z,69.19
2018-12-31T01:26:24.431Z,69.10
2018-12-31T01:26:25.031Z,69.29
2018-12-31T01:26:25.629Z,69.10
2018-12-31T01:26:26.232Z,69.29
2018-12-31T01:27:20.712Z,70.24
2018-12-31T01:27:21.308Z,70.05
2018-12-31T01:27:21.906Z,69.95
2018-12-31T01:27:22.507Z,69.95
2018-12-31T01:27:23.107Z,70.05
2018-12-31T01:27:23.706Z,69.76
2018-12-31T01:27:24.307Z,70.14
2018-12-31T01:27:24.907Z,69.76
2018-12-31T01:28:18.392Z,70.52
2018-12-31T01:28:18.960Z,70.33
2018-12-31T01:28:19.564Z,70.33
2018-12-31T01:28:20.159Z,70.14
2018-12-31T01:28:20.759Z,70.52
2018-12-31T01:28:21.360Z,70.14
2018-12-31T01:28:21.959Z,70.14
2018-12-31T01:28:22.563Z,70.90
2018-12-31T01:29:16.018Z,71.67
2018-12-31T01:29:16.612Z,71.67
2018-12-31T01:29:17.211Z,71.57
2018-12-31T01:29:17.812Z,71.67
2018-12-31T01:29:18.414Z,71.47
2018-12-31T01:29:19.012Z,71.09
2018-12-31T01:29:19.610Z,71.38
2018-12-31T01:29:20.210Z,71.38
2018-12-31T01:30:14.689Z,72.05
2018-12-31T01:30:15.287Z,71.95
2018-12-31T01:30:15.887Z,71.76
2018-12-31T01:30:16.488Z,72.24
2018-12-31T01:30:17.088Z,72.14
2018-12-31T01:30:17.685Z,72.14
2018-12-31T01:30:18.286Z,72.24
2018-12-31T01:30:18.885Z,72.14
2018-12-31T01:31:12.341Z,72.90
2018-12-31T01:31:12.941Z,73.00
2018-12-31T01:31:13.539Z,72.90
2018-12-31T01:31:14.138Z,72.52
2018-12-31T01:31:14.739Z,72.52
2018-12-31T01:31:15.338Z,72.42
2018-12-31T01:31:15.937Z,72.71
2018-12-31T01:31:16.538Z,72.62
2018-12-31T01:32:11.016Z,73.10
2018-12-31T01:32:11.615Z,73.28
2018-12-31T01:32:12.213Z,73.10
2018-12-31T01:32:12.815Z,73.19
2018-12-31T01:32:13.415Z,73.10
2018-12-31T01:32:14.013Z,72.90
2018-12-31T01:32:14.613Z,73.19
2018-12-31T01:32:15.214Z,73.19
2018-12-31T01:33:08.669Z,73.85
2018-12-31T01:33:09.265Z,73.76
2018-12-31T01:33:09.871Z,73.76
2018-12-31T01:33:10.468Z,73.95
2018-12-31T01:33:11.064Z,73.85
2018-12-31T01:33:11.663Z,73.95
2018-12-31T01:33:12.264Z,73.76
2018-12-31T01:33:12.864Z,74.04
2018-12-31T01:34:07.368Z,74.80
2018-12-31T01:34:07.941Z,74.99
2018-12-31T01:34:08.546Z,75.19
2018-12-31T01:34:09.141Z,75.19
2018-12-31T01:34:09.741Z,74.99
2018-12-31T01:34:10.343Z,74.99
2018-12-31T01:34:10.940Z,74.99
2018-12-31T01:34:11.540Z,74.90
2018-12-31T01:35:06.020Z,75.76
2018-12-31T01:35:06.619Z,75.95
2018-12-31T01:35:07.217Z,75.67
2018-12-31T01:35:07.817Z,75.95
2018-12-31T01:35:08.415Z,75.57
2018-12-31T01:35:09.018Z,75.47
2018-12-31T01:35:09.617Z,75.76
2018-12-31T01:35:10.217Z,75.67
2018-12-31T01:36:03.673Z,75.95
2018-12-31T01:36:04.270Z,75.95
2018-12-31T01:36:04.870Z,75.85
2018-12-31T01:36:05.470Z,75.95
2018-12-31T01:36:06.069Z,75.85
2018-12-31T01:36:06.672Z,75.95
2018-12-31T01:36:07.268Z,75.95
2018-12-31T01:36:07.868Z,75.85
2018-12-31T01:37:02.347Z,76.04
2018-12-31T01:37:02.945Z,75.95
2018-12-31T01:37:03.545Z,76.61
2018-12-31T01:37:04.145Z,76.23
2018-12-31T01:37:04.744Z,75.85
2018-12-31T01:37:05.345Z,76.42
2018-12-31T01:37:05.944Z,76.14
2018-12-31T01:37:06.545Z,76.04
2018-12-31T01:38:01.022Z,76.90
2018-12-31T01:38:01.621Z,76.81
2018-12-31T01:38:02.220Z,76.90
2018-12-31T01:38:02.819Z,76.90
2018-12-31T01:38:03.420Z,76.90
2018-12-31T01:38:04.020Z,76.90
2018-12-31T01:38:04.618Z,76.90
2018-12-31T01:38:05.219Z,76.90
2018-12-31T01:38:58.706Z,77.76
2018-12-31T01:38:59.273Z,77.56
2018-12-31T01:38:59.871Z,77.47
2018-12-31T01:39:00.473Z,77.37
2018-12-31T01:39:01.071Z,77.47
2018-12-31T01:39:01.671Z,77.47
2018-12-31T01:39:02.272Z,77.37
2018-12-31T01:39:02.870Z,77.37
2018-12-31T01:39:57.350Z,77.85
2018-12-31T01:39:57.948Z,77.76
2018-12-31T01:39:58.547Z,77.47
2018-12-31T01:39:59.147Z,77.47
2018-12-31T01:39:59.747Z,77.47
2018-12-31T01:40:00.350Z,77.56
2018-12-31T01:40:00.948Z,77.76
2018-12-31T01:40:01.547Z,77.76
2018-12-31T01:40:55.003Z,76.81
2018-12-31T01:40:55.600Z,76.90
2018-12-31T01:40:56.200Z,77.19
2018-12-31T01:40:56.798Z,77.19
2018-12-31T01:40:57.398Z,77.09
2018-12-31T01:40:58.002Z,77.09
2018-12-31T01:40:58.602Z,77.00
2018-12-31T01:40:59.198Z,77.09
2018-12-31T01:41:53.678Z,76.81
2018-12-31T01:41:54.274Z,76.81
2018-12-31T01:41:54.876Z,77.19
2018-12-31T01:41:55.475Z,77.19
2018-12-31T01:41:56.074Z,77.19
2018-12-31T01:41:56.678Z,77.19
2018-12-31T01:41:57.274Z,77.19
2018-12-31T01:41:57.874Z,77.19
2018-12-31T01:42:51.330Z,77.09
2018-12-31T01:42:51.927Z,77.09
2018-12-31T01:42:52.528Z,77.09
2018-12-31T01:42:53.127Z,76.90
2018-12-31T01:42:53.727Z,76.90
2018-12-31T01:42:54.327Z,76.90
2018-12-31T01:42:54.928Z,77.09
2018-12-31T01:42:55.526Z,76.90
2018-12-31T01:43:50.005Z,76.90
2018-12-31T01:43:50.603Z,76.90
2018-12-31T01:43:51.202Z,76.90
2018-12-31T01:43:51.807Z,76.90
2018-12-31T01:43:52.403Z,76.90
2018-12-31T01:43:53.002Z,76.90
2018-12-31T01:43:53.600Z,77.00
2018-12-31T01:43:54.201Z,77.00
2018-12-31T01:44:48.711Z,76.71
2018-12-31T01:44:49.280Z,77.19
2018-12-31T01:44:49.883Z,76.81
2018-12-31T01:44:50.478Z,76.81
2018-12-31T01:44:51.078Z,77.00
2018-12-31T01:44:51.677Z,76.71
2018-12-31T01:44:52.279Z,77.19
2018-12-31T01:44:52.877Z,76.61
2018-12-31T01:45:46.333Z,77.09
2018-12-31T01:45:46.934Z,77.09
2018-12-31T01:45:47.530Z,77.09
2018-12-31T01:45:48.131Z,77.00
2018-12-31T01:45:48.732Z,77.00
2018-12-31T01:45:49.329Z,77.19
2018-12-31T01:45:49.930Z,77.00
2018-12-31T01:45:50.530Z,77.00
2018-12-31T01:46:45.007Z,77.37
2018-12-31T01:46:45.608Z,77.37
2018-12-31T01:46:46.206Z,77.56
2018-12-31T01:46:46.806Z,77.56
2018-12-31T01:46:47.408Z,77.19
2018-12-31T01:46:48.005Z,77.19
2018-12-31T01:46:48.605Z,77.37
2018-12-31T01:46:49.205Z,77.76
2018-12-31T01:47:43.685Z,78.23
2018-12-31T01:47:44.281Z,77.95
2018-12-31T01:47:44.882Z,78.42
2018-12-31T01:47:45.483Z,78.33
2018-12-31T01:47:46.080Z,78.23
2018-12-31T01:47:46.681Z,78.33
2018-12-31T01:47:47.279Z,78.14
2018-12-31T01:47:47.880Z,78.33
2018-12-31T01:48:42.360Z,78.23
2018-12-31T01:48:42.957Z,78.14
2018-12-31T01:48:43.559Z,78.71
2018-12-31T01:48:44.156Z,78.33
2018-12-31T01:48:44.758Z,78.80
2018-12-31T01:48:45.356Z,78.71
2018-12-31T01:48:46.038Z,78.42
2018-12-31T01:48:46.557Z,78.33
2018-12-31T01:49:40.012Z,78.42
2018-12-31T01:49:40.695Z,78.42
2018-12-31T01:49:41.209Z,78.71
2018-12-31T01:49:41.810Z,78.42
2018-12-31T01:49:42.408Z,78.42
2018-12-31T01:49:43.008Z,78.42
2018-12-31T01:49:43.608Z,78.42
2018-12-31T01:49:44.210Z,78.42
2018-12-31T01:50:37.687Z,78.23
2018-12-31T01:50:38.259Z,78.14
2018-12-31T01:50:38.861Z,78.33
2018-12-31T01:50:39.459Z,78.23
2018-12-31T01:50:40.061Z,78.23
2018-12-31T01:50:40.660Z,78.33
2018-12-31T01:50:41.260Z,78.33
2018-12-31T01:50:41.859Z,78.23
2018-12-31T01:51:36.343Z,77.85
2018-12-31T01:51:36.935Z,77.76
2018-12-31T01:51:37.536Z,77.95
2018-12-31T01:51:38.135Z,77.95
2018-12-31T01:51:38.734Z,77.95
2018-12-31T01:51:39.335Z,78.04
2018-12-31T01:51:39.935Z,78.04
2018-12-31T01:51:40.535Z,78.04
2018-12-31T01:52:35.014Z,78.04
2018-12-31T01:52:35.612Z,77.66
2018-12-31T01:52:36.212Z,78.04
2018-12-31T01:52:36.811Z,78.04
2018-12-31T01:52:37.414Z,77.66
2018-12-31T01:52:38.012Z,78.14
2018-12-31T01:52:38.610Z,77.66
2018-12-31T01:52:39.210Z,77.85
2018-12-31T01:53:32.665Z,77.85
2018-12-31T01:53:33.265Z,78.04
2018-12-31T01:53:33.864Z,77.76
2018-12-31T01:53:34.463Z,77.66
2018-12-31T01:53:35.064Z,78.04
2018-12-31T01:53:35.663Z,77.76
2018-12-31T01:53:36.262Z,78.23
2018-12-31T01:53:36.864Z,78.04
2018-12-31T01:54:31.341Z,77.76
2018-12-31T01:54:31.964Z,77.56
2018-12-31T01:54:32.539Z,77.76
2018-12-31T01:54:33.139Z,77.76
2018-12-31T01:54:33.738Z,77.76
2018-12-31T01:54:34.341Z,77.76
2018-12-31T01:54:34.938Z,77.76
2018-12-31T01:54:35.538Z,77.66
2018-12-31T01:55:28.994Z,77.95
2018-12-31T01:55:29.591Z,77.66
2018-12-31T01:55:30.192Z,77.47
2018-12-31T01:55:30.791Z,77.66
2018-12-31T01:55:31.390Z,77.76
2018-12-31T01:55:31.994Z,77.47
2018-12-31T01:55:32.591Z,77.37
2018-12-31T01:55:33.190Z,77.66
2018-12-31T01:56:27.693Z,77.00
2018-12-31T01:56:28.265Z,77.19
2018-12-31T01:56:28.865Z,77.09
2018-12-31T01:56:29.465Z,77.00
2018-12-31T01:56:30.065Z,77.00
2018-12-31T01:56:30.665Z,77.00
2018-12-31T01:56:31.266Z,77.09
2018-12-31T01:56:31.867Z,77.09
2018-12-31T01:57:26.368Z,76.90
2018-12-31T01:57:26.943Z,77.09
2018-12-31T01:57:27.544Z,77.00
2018-12-31T01:57:28.141Z,76.90
2018-12-31T01:57:28.741Z,77.00
2018-12-31T01:57:29.341Z,76.90
2018-12-31T01:57:29.941Z,76.90
2018-12-31T01:57:30.542Z,76.90
2018-12-31T01:58:25.043Z,76.90
2018-12-31T01:58:25.618Z,76.52
2018-12-31T01:58:26.217Z,76.52
2018-12-31T01:58:26.816Z,76.42
2018-12-31T01:58:27.418Z,76.52
2018-12-31T01:58:28.017Z,76.52
2018-12-31T01:58:28.618Z,76.52
2018-12-31T01:58:29.216Z,76.90
2018-12-31T01:59:22.674Z,76.42
2018-12-31T01:59:23.270Z,76.42
2018-12-31T01:59:23.869Z,76.52
2018-12-31T01:59:24.474Z,76.42
2018-12-31T01:59:25.072Z,76.42
2018-12-31T01:59:25.670Z,76.14
2018-12-31T01:59:26.269Z,76.52
2018-12-31T01:59:26.869Z,77.00
2018-12-31T02:00:21.348Z,76.71
2018-12-31T02:00:21.946Z,76.23
2018-12-31T02:00:22.545Z,76.33
2018-12-31T02:00:23.144Z,76.71
2018-12-31T02:00:23.745Z,76.71
2018-12-31T02:00:24.345Z,76.61
2018-12-31T02:00:24.947Z,76.71
2018-12-31T02:00:25.545Z,76.71
2018-12-31T02:01:20.047Z,76.90
2018-12-31T02:01:20.622Z,76.90
2018-12-31T02:01:21.220Z,76.81
2018-12-31T02:01:21.820Z,76.90
2018-12-31T02:01:22.421Z,76.90
2018-12-31T02:01:23.020Z,76.90
2018-12-31T02:01:23.622Z,76.90
2018-12-31T02:01:24.219Z,76.90
2018-12-31T02:02:18.698Z,77.09
2018-12-31T02:02:19.297Z,76.90
2018-12-31T02:02:19.896Z,77.00
2018-12-31T02:02:20.496Z,77.09
2018-12-31T02:02:21.095Z,76.61
2018-12-31T02:02:21.698Z,77.00
2018-12-31T02:02:22.294Z,77.09
2018-12-31T02:02:22.895Z,77.19
2018-12-31T02:03:16.357Z,76.90
2018-12-31T02:03:16.950Z,77.09
2018-12-31T02:03:17.548Z,76.90
2018-12-31T02:03:18.148Z,77.09